createdAt,value
2022-09-17T00:01:08.372Z,59.39
2022-09-17T00:03:36.093Z,59.48
2022-09-17T00:06:06.193Z,59.24
2022-09-17T00:08:34.723Z,59.42
2022-09-17T00:11:21.951Z,59.33
2022-09-17T00:13:50.299Z,59.38
2022-09-17T00:16:28.198Z,59.40
2022-09-17T00:18:56.030Z,59.48
2022-09-17T00:21:23.465Z,59.54
2022-09-17T00:23:54.987Z,59.33
2022-09-17T00:26:21.961Z,59.56
2022-09-17T00:28:53.503Z,59.56
2022-09-17T00:31:21.344Z,59.50
2022-09-17T00:33:49.281Z,59.68
2022-09-17T00:36:16.361Z,59.75
2022-09-17T00:38:43.716Z,59.75
2022-09-17T00:41:10.530Z,59.51
2022-09-17T00:43:39.607Z,59.86
2022-09-17T00:46:17.870Z,59.77
2022-09-17T00:48:45.507Z,59.76
2022-09-17T00:51:18.226Z,59.82
2022-09-17T00:53:45.212Z,59.50
2022-09-17T00:56:30.143Z,59.74
2022-09-17T00:58:57.059Z,59.61
2022-09-17T01:01:24.180Z,59.72
2022-09-17T01:03:51.209Z,59.53
2022-09-17T01:06:47.075Z,59.87
2022-09-17T01:09:22.297Z,59.82
2022-09-17T01:12:19.056Z,59.77
2022-09-17T01:14:57.864Z,59.70
2022-09-17T01:17:27.476Z,59.82
2022-09-17T01:20:23.243Z,59.86
2022-09-17T01:22:57.454Z,60.09
2022-09-17T01:25:47.076Z,59.62
2022-09-17T01:28:43.063Z,59.89
2022-09-17T01:31:15.711Z,59.92
2022-09-17T01:34:05.860Z,59.74
2022-09-17T01:36:41.783Z,59.80
2022-09-17T01:39:33.603Z,59.75
2022-09-17T01:42:19.157Z,59.85
2022-09-17T01:44:54.877Z,59.85
2022-09-17T01:47:50.264Z,59.65
2022-09-17T01:50:25.406Z,59.82
2022-09-17T01:52:55.945Z,59.83
2022-09-17T01:55:30.088Z,59.86
2022-09-17T01:58:03.824Z,59.65
2022-09-17T02:00:30.998Z,59.89
2022-09-17T02:03:08.491Z,59.71
2022-09-17T02:05:40.856Z,59.76
2022-09-17T02:08:26.554Z,59.95
2022-09-17T02:11:02.744Z,59.68
2022-09-17T02:13:37.887Z,59.93
2022-09-17T02:16:16.357Z,59.89
2022-09-17T02:19:07.102Z,60.07
2022-09-17T02:21:47.649Z,59.88
2022-09-17T02:24:24.707Z,59.89
2022-09-17T02:27:02.356Z,60.01
2022-09-17T02:29:35.450Z,59.85
2022-09-17T02:32:02.615Z,59.97
2022-09-17T02:34:30.168Z,59.93
2022-09-17T02:37:01.237Z,60.14
2022-09-17T02:39:28.631Z,59.88
2022-09-17T02:42:23.594Z,59.91
2022-09-17T02:45:14.510Z,60.02
2022-09-17T02:48:04.367Z,59.94
2022-09-17T02:50:53.347Z,59.90
2022-09-17T02:53:40.349Z,59.87
2022-09-17T02:56:40.186Z,59.83
2022-09-17T02:59:13.050Z,59.88
2022-09-17T03:01:48.507Z,60.03
2022-09-17T03:04:18.841Z,60.08
2022-09-17T03:06:47.413Z,60.15
2022-09-17T03:09:15.974Z,60.17
2022-09-17T03:11:42.991Z,59.92
2022-09-17T03:14:09.829Z,60.11
2022-09-17T03:16:36.870Z,60.01
2022-09-17T03:19:03.907Z,59.92
2022-09-17T03:21:31.385Z,60.18
2022-09-17T03:24:00.506Z,59.98
2022-09-17T03:26:27.990Z,60.16
2022-09-17T03:28:54.858Z,60.10
2022-09-17T03:31:21.842Z,60.14
2022-09-17T03:33:48.830Z,60.05
2022-09-17T03:36:16.056Z,59.98
2022-09-17T03:38:42.838Z,60.11
2022-09-17T03:41:09.740Z,60.16
2022-09-17T03:43:36.512Z,60.13
2022-09-17T03:46:03.940Z,60.20
2022-09-17T03:48:30.877Z,60.03
2022-09-17T03:50:57.670Z,60.04
2022-09-17T03:53:24.491Z,60.17
2022-09-17T03:55:51.332Z,60.19
2022-09-17T03:58:18.107Z,60.13
2022-09-17T04:00:45.353Z,60.07
2022-09-17T04:03:12.495Z,60.00
2022-09-17T04:05:39.333Z,60.00
2022-09-17T04:08:06.168Z,60.08
2022-09-17T04:10:32.942Z,59.92
2022-09-17T04:12:59.820Z,59.87
2022-09-17T04:15:26.674Z,60.31
2022-09-17T04:18:00.924Z,59.98
2022-09-17T04:20:27.955Z,60.05
2022-09-17T04:22:55.090Z,59.98
2022-09-17T04:25:21.928Z,60.15
2022-09-17T04:27:48.719Z,60.11
2022-09-17T04:30:16.277Z,60.25
2022-09-17T04:32:46.215Z,60.14
2022-09-17T04:35:13.436Z,60.23
2022-09-17T04:37:40.433Z,60.15
2022-09-17T04:40:08.400Z,60.12
2022-09-17T04:42:35.323Z,60.13
2022-09-17T04:45:02.133Z,60.05
2022-09-17T04:47:29.034Z,60.29
2022-09-17T04:49:55.861Z,60.25
2022-09-17T04:52:22.701Z,60.12
2022-09-17T04:54:49.507Z,60.22
2022-09-17T04:57:16.413Z,60.31
2022-09-17T04:59:43.264Z,60.23
2022-09-17T05:02:10.090Z,60.36
2022-09-17T05:04:36.961Z,59.93
2022-09-17T05:07:03.961Z,60.10
2022-09-17T05:09:30.775Z,60.38
2022-09-17T05:11:57.632Z,60.05
2022-09-17T05:14:24.385Z,60.38
2022-09-17T05:16:51.204Z,60.13
2022-09-17T05:19:18.102Z,60.27
2022-09-17T05:21:44.943Z,60.36
2022-09-17T05:24:11.731Z,60.19
2022-09-17T05:26:38.563Z,60.46
2022-09-17T05:29:05.443Z,60.24
2022-09-17T05:31:32.446Z,60.40
2022-09-17T05:33:59.452Z,60.25
2022-09-17T05:36:26.279Z,60.43
2022-09-17T05:38:53.113Z,60.41
2022-09-17T05:41:19.994Z,60.20
2022-09-17T05:43:46.845Z,60.79
2022-09-17T05:46:13.811Z,60.86
2022-09-17T05:48:40.707Z,60.75
2022-09-17T05:51:07.549Z,60.93
2022-09-17T05:53:34.393Z,60.86
2022-09-17T05:56:01.414Z,60.74
2022-09-17T05:58:28.944Z,60.78
2022-09-17T06:00:56.075Z,60.99
2022-09-17T06:03:23.078Z,60.89
2022-09-17T06:05:58.831Z,61.24
2022-09-17T06:08:27.850Z,60.98
2022-09-17T06:10:57.871Z,61.06
2022-09-17T06:13:27.136Z,61.19
2022-09-17T06:15:54.576Z,61.23
2022-09-17T06:18:21.695Z,61.37
2022-09-17T06:20:59.959Z,61.28
2022-09-17T06:23:27.271Z,61.05
2022-09-17T06:25:57.561Z,61.55
2022-09-17T06:28:25.416Z,61.52
2022-09-17T06:30:57.495Z,61.62
2022-09-17T06:33:24.488Z,61.41
2022-09-17T06:35:57.928Z,61.19
2022-09-17T06:38:24.828Z,61.35
2022-09-17T06:40:54.837Z,61.09
2022-09-17T06:43:22.486Z,61.40
2022-09-17T06:46:09.415Z,61.36
2022-09-17T06:48:37.949Z,61.40
2022-09-17T06:51:07.578Z,61.17
2022-09-17T06:53:37.003Z,61.24
2022-09-17T06:56:06.840Z,61.17
2022-09-17T06:58:37.406Z,61.16
2022-09-17T07:01:05.538Z,60.81
2022-09-17T07:03:33.452Z,60.90
2022-09-17T07:06:00.811Z,60.92
2022-09-17T07:08:27.772Z,60.92
2022-09-17T07:10:58.577Z,60.90
2022-09-17T07:13:26.059Z,60.92
2022-09-17T07:15:58.227Z,61.00
2022-09-17T07:18:25.666Z,60.89
2022-09-17T07:20:55.148Z,60.96
2022-09-17T07:23:27.889Z,60.81
2022-09-17T07:25:56.450Z,60.75
2022-09-17T07:28:24.378Z,60.87
2022-09-17T07:30:52.501Z,60.88
2022-09-17T07:33:24.749Z,60.48
2022-09-17T07:35:55.574Z,60.65
2022-09-17T07:38:23.400Z,60.93
2022-09-17T07:40:58.973Z,60.67
2022-09-17T07:43:27.272Z,60.35
2022-09-17T07:45:55.131Z,60.37
2022-09-17T07:48:22.004Z,59.57
2022-09-17T07:50:49.103Z,60.16
2022-09-17T07:53:16.609Z,60.57
2022-09-17T07:55:43.638Z,60.47
2022-09-17T07:58:10.566Z,60.61
2022-09-17T08:00:37.377Z,60.52
2022-09-17T08:03:04.431Z,60.57
2022-09-17T08:05:32.769Z,60.52
2022-09-17T08:07:59.702Z,60.63
2022-09-17T08:10:27.471Z,60.67
2022-09-17T08:12:58.619Z,60.70
2022-09-17T08:15:26.362Z,60.61
2022-09-17T08:17:53.619Z,60.34
2022-09-17T08:20:20.987Z,60.50
2022-09-17T08:22:50.107Z,60.84
2022-09-17T08:25:17.478Z,60.72
2022-09-17T08:27:44.474Z,59.84
2022-09-17T08:30:11.988Z,59.46
2022-09-17T08:32:39.159Z,59.99
2022-09-17T08:35:06.526Z,60.13
2022-09-17T08:37:33.738Z,60.19
2022-09-17T08:40:00.708Z,60.00
2022-09-17T08:43:00.517Z,60.14
2022-09-17T08:45:28.198Z,60.19
2022-09-17T08:48:05.435Z,60.47
2022-09-17T08:50:39.332Z,60.43
2022-09-17T08:53:34.367Z,60.41
2022-09-17T08:56:09.849Z,60.47
2022-09-17T08:59:10.501Z,60.27
2022-09-17T09:01:52.992Z,60.37
2022-09-17T09:05:25.202Z,60.62
2022-09-17T09:07:57.427Z,60.62
2022-09-17T09:10:28.538Z,60.56
2022-09-17T09:12:57.048Z,60.75
2022-09-17T09:15:30.653Z,60.66
2022-09-17T09:18:03.896Z,60.75
2022-09-17T09:20:48.764Z,60.77
2022-09-17T09:23:33.473Z,60.80
2022-09-17T09:26:21.762Z,60.73
2022-09-17T09:29:20.402Z,60.78
2022-09-17T09:32:02.535Z,60.80
2022-09-17T09:34:30.321Z,60.99
2022-09-17T09:37:14.459Z,60.64
2022-09-17T09:39:46.044Z,60.96
2022-09-17T09:42:37.012Z,60.84
2022-09-17T09:45:15.422Z,60.75
2022-09-17T09:48:13.927Z,60.81
2022-09-17T09:51:22.558Z,60.99
2022-09-17T09:54:33.748Z,60.83
2022-09-17T09:57:12.965Z,61.20
2022-09-17T09:59:41.755Z,61.07
2022-09-17T10:02:09.124Z,60.84
2022-09-17T10:04:36.331Z,60.87
2022-09-17T10:07:06.207Z,60.66
2022-09-17T10:09:37.362Z,59.75
2022-09-17T10:12:11.295Z,60.12
2022-09-17T10:14:40.015Z,60.59
2022-09-17T10:17:23.396Z,60.46
2022-09-17T10:20:02.440Z,60.49
2022-09-17T10:22:34.955Z,60.61
2022-09-17T10:25:04.064Z,60.65
2022-09-17T10:27:31.402Z,60.67
2022-09-17T10:30:09.224Z,60.81
2022-09-17T10:32:36.145Z,61.04
2022-09-17T10:35:16.608Z,61.02
2022-09-17T10:37:44.922Z,60.92
2022-09-17T10:40:20.839Z,60.91
2022-09-17T10:42:49.650Z,61.05
2022-09-17T10:45:31.168Z,61.08
2022-09-17T10:48:00.459Z,61.31
2022-09-17T10:50:30.434Z,59.92
2022-09-17T10:53:04.583Z,60.40
2022-09-17T10:56:05.639Z,60.03
2022-09-17T10:58:52.584Z,60.85
2022-09-17T11:01:53.192Z,60.94
2022-09-17T11:04:35.023Z,60.88
2022-09-17T11:07:19.967Z,61.23
2022-09-17T11:10:08.497Z,61.42
2022-09-17T11:12:49.972Z,61.62
2022-09-17T11:15:41.832Z,61.50
2022-09-17T11:18:23.945Z,61.58
2022-09-17T11:21:30.177Z,61.48
2022-09-17T11:24:12.235Z,61.42
2022-09-17T11:26:41.861Z,61.19
2022-09-17T11:29:18.198Z,61.35
2022-09-17T11:32:26.206Z,61.20
2022-09-17T11:35:16.415Z,61.13
2022-09-17T11:38:03.530Z,61.42
2022-09-17T11:40:52.713Z,61.53
2022-09-17T11:43:28.331Z,61.43
2022-09-17T11:46:01.143Z,61.28
2022-09-17T11:48:39.973Z,61.06
2022-09-17T11:51:26.407Z,61.26
2022-09-17T11:54:05.656Z,61.30
2022-09-17T11:56:43.406Z,61.17
2022-09-17T11:59:32.319Z,61.10
2022-09-17T12:02:06.076Z,61.17
2022-09-17T12:04:45.918Z,61.13
2022-09-17T12:07:30.727Z,61.16
2022-09-17T12:10:43.318Z,61.24
2022-09-17T12:13:10.087Z,61.20
2022-09-17T12:15:40.855Z,61.37
2022-09-17T12:18:32.370Z,61.28
2022-09-17T12:21:02.909Z,61.49
2022-09-17T12:23:40.789Z,61.31
2022-09-17T12:26:49.355Z,61.48
2022-09-17T12:29:40.218Z,61.66
2022-09-17T12:32:31.813Z,61.74
2022-09-17T12:35:19.100Z,61.72
2022-09-17T12:38:24.477Z,61.74
2022-09-17T12:40:54.157Z,61.74
2022-09-17T12:43:45.251Z,61.34
2022-09-17T12:46:45.629Z,61.60
2022-09-17T12:49:44.174Z,61.46
2022-09-17T12:52:29.057Z,61.64
2022-09-17T12:55:25.251Z,61.86
2022-09-17T12:58:28.603Z,61.28
2022-09-17T13:01:11.337Z,61.27
2022-09-17T13:03:46.481Z,61.34
2022-09-17T13:06:41.268Z,61.30
2022-09-17T13:09:40.090Z,61.51
2022-09-17T13:12:12.967Z,61.29
2022-09-17T13:15:03.696Z,60.96
2022-09-17T13:17:39.547Z,60.79
2022-09-17T13:20:22.012Z,60.77
2022-09-17T13:22:52.179Z,60.91
2022-09-17T13:25:21.639Z,60.81
2022-09-17T13:27:51.094Z,60.74
2022-09-17T13:30:19.520Z,60.73
2022-09-17T13:32:48.914Z,60.76
2022-09-17T13:35:15.843Z,60.77
2022-09-17T13:37:59.955Z,60.90
2022-09-17T13:40:35.717Z,60.63
2022-09-17T13:43:08.508Z,61.02
2022-09-17T13:46:01.229Z,61.01
2022-09-17T13:48:34.971Z,60.93
2022-09-17T13:51:30.763Z,60.59
2022-09-17T13:54:04.128Z,60.22
2022-09-17T13:56:46.331Z,60.21
2022-09-17T13:59:21.088Z,60.01
2022-09-17T14:01:59.797Z,59.78
2022-09-17T14:04:33.976Z,59.68
2022-09-17T14:07:01.045Z,59.57
2022-09-17T14:09:36.061Z,59.40
2022-09-17T14:12:51.192Z,59.06
2022-09-17T14:15:54.192Z,59.02
2022-09-17T14:18:30.054Z,58.78
2022-09-17T14:21:25.226Z,58.77
2022-09-17T14:23:57.839Z,58.63
2022-09-17T14:26:59.833Z,58.66
2022-09-17T14:29:50.033Z,58.73
2022-09-17T14:32:21.654Z,58.69
2022-09-17T14:34:50.048Z,58.42
2022-09-17T14:37:20.964Z,58.19
2022-09-17T14:39:49.506Z,58.38
2022-09-17T14:42:29.032Z,58.23
2022-09-17T14:45:02.709Z,58.11
2022-09-17T14:47:29.699Z,58.16
2022-09-17T14:50:26.275Z,57.99
2022-09-17T14:52:54.663Z,57.94
2022-09-17T14:55:26.760Z,57.83
2022-09-17T14:57:59.224Z,57.95
2022-09-17T15:00:35.687Z,57.87
2022-09-17T15:03:02.803Z,57.92
2022-09-17T15:05:32.139Z,57.80
2022-09-17T15:08:12.031Z,57.70
2022-09-17T15:10:52.227Z,57.63
2022-09-17T15:13:27.238Z,57.53
2022-09-17T15:16:17.227Z,57.52
2022-09-17T15:18:55.495Z,57.26
2022-09-17T15:21:35.708Z,57.32
2022-09-17T15:24:38.148Z,57.30
2022-09-17T15:27:13.371Z,56.61
2022-09-17T15:29:44.508Z,56.46
2022-09-17T15:32:14.512Z,56.52
2022-09-17T15:34:42.922Z,56.44
2022-09-17T15:37:19.303Z,56.07
2022-09-17T15:39:52.398Z,56.00
2022-09-17T15:42:24.150Z,56.22
2022-09-17T15:44:51.065Z,55.96
2022-09-17T15:47:39.256Z,55.63
2022-09-17T15:50:21.101Z,55.43
2022-09-17T15:52:48.994Z,55.62
2022-09-17T15:55:36.698Z,55.45
2022-09-17T15:58:19.511Z,55.42
2022-09-17T16:00:46.438Z,55.52
2022-09-17T16:03:41.053Z,55.30
2022-09-17T16:06:20.198Z,55.04
2022-09-17T16:08:49.451Z,55.12
2022-09-17T16:11:20.832Z,55.05
2022-09-17T16:13:52.264Z,55.40
2022-09-17T16:16:38.610Z,54.84
2022-09-17T16:19:08.731Z,55.24
2022-09-17T16:21:36.234Z,55.16
2022-09-17T16:24:03.141Z,54.95
2022-09-17T16:26:32.857Z,54.90
2022-09-17T16:29:15.561Z,54.83
2022-09-17T16:31:42.652Z,54.79
2022-09-17T16:34:09.848Z,54.62
2022-09-17T16:36:36.821Z,53.74
2022-09-17T16:39:05.443Z,53.22
2022-09-17T16:41:32.739Z,52.81
2022-09-17T16:43:59.968Z,54.02
2022-09-17T16:46:27.068Z,54.51
2022-09-17T16:48:53.983Z,54.73
2022-09-17T16:51:20.919Z,54.55
2022-09-17T16:53:48.005Z,54.62
2022-09-17T16:56:16.023Z,53.86
2022-09-17T16:58:43.315Z,54.39
2022-09-17T17:01:16.081Z,54.67
2022-09-17T17:03:45.718Z,54.52
2022-09-17T17:06:17.894Z,54.56
2022-09-17T17:08:45.069Z,54.59
2022-09-17T17:11:12.601Z,54.31
2022-09-17T17:13:39.559Z,54.59
2022-09-17T17:16:14.684Z,54.75
2022-09-17T17:18:45.510Z,54.94
2022-09-17T17:21:13.995Z,54.78
2022-09-17T17:23:43.895Z,54.88
2022-09-17T17:26:10.956Z,54.95
2022-09-17T17:28:38.375Z,55.13
2022-09-17T17:31:06.806Z,55.17
2022-09-17T17:33:33.969Z,55.11
2022-09-17T17:36:07.564Z,55.16
2022-09-17T17:38:35.878Z,55.39
2022-09-17T17:41:10.011Z,55.61
2022-09-17T17:43:37.236Z,55.76
2022-09-17T17:46:12.216Z,55.55
2022-09-17T17:48:39.251Z,55.50
2022-09-17T17:51:08.737Z,55.57
2022-09-17T17:53:36.457Z,55.72
2022-09-17T17:56:08.190Z,55.87
2022-09-17T17:58:36.254Z,55.86
2022-09-17T18:01:24.064Z,55.89
2022-09-17T18:03:51.067Z,56.06
2022-09-17T18:06:18.047Z,55.98
2022-09-17T18:08:45.022Z,56.12
2022-09-17T18:11:12.516Z,56.28
2022-09-17T18:13:40.258Z,55.92
2022-09-17T18:16:09.464Z,55.96
2022-09-17T18:18:43.707Z,56.11
2022-09-17T18:21:16.244Z,56.03
2022-09-17T18:23:43.915Z,56.06
2022-09-17T18:26:13.867Z,56.15
2022-09-17T18:28:41.736Z,55.92
2022-09-17T18:31:17.592Z,56.30
2022-09-17T18:33:44.852Z,56.15
2022-09-17T18:36:12.069Z,55.78
2022-09-17T18:38:41.831Z,55.71
2022-09-17T18:41:13.996Z,55.99
2022-09-17T18:43:41.128Z,55.98
2022-09-17T18:46:08.070Z,55.76
2022-09-17T18:48:36.655Z,55.78
2022-09-17T18:51:12.688Z,55.75
2022-09-17T18:53:39.877Z,55.76
2022-09-17T18:56:19.314Z,55.87
2022-09-17T18:58:47.692Z,55.68
2022-09-17T19:01:15.257Z,55.95
2022-09-17T19:03:42.491Z,55.80
2022-09-17T19:06:11.635Z,55.71
2022-09-17T19:08:39.427Z,55.70
2022-09-17T19:11:06.862Z,55.88
2022-09-17T19:13:39.429Z,56.00
2022-09-17T19:16:08.261Z,55.76
2022-09-17T19:18:37.293Z,55.70
2022-09-17T19:21:07.059Z,55.77
2022-09-17T19:23:34.695Z,55.66
2022-09-17T19:26:07.414Z,55.69
2022-09-17T19:28:35.981Z,55.80
2022-09-17T19:31:17.460Z,55.88
2022-09-17T19:33:45.417Z,55.82
2022-09-17T19:36:15.503Z,55.64
2022-09-17T19:38:43.877Z,55.86
2022-09-17T19:41:13.711Z,56.01
2022-09-17T19:43:42.302Z,55.68
2022-09-17T19:46:15.441Z,55.70
2022-09-17T19:48:56.844Z,55.72
2022-09-17T19:51:26.308Z,55.68
2022-09-17T19:53:54.476Z,55.72
2022-09-17T19:56:24.781Z,55.65
2022-09-17T19:58:53.833Z,55.92
2022-09-17T20:01:21.772Z,55.87
2022-09-17T20:03:49.805Z,55.97
2022-09-17T20:06:24.743Z,55.94
2022-09-17T20:08:54.214Z,55.61
2022-09-17T20:11:24.765Z,55.93
2022-09-17T20:13:58.904Z,55.82
2022-09-17T20:16:27.780Z,55.83
2022-09-17T20:18:57.052Z,55.65
2022-09-17T20:21:28.833Z,55.82
2022-09-17T20:23:57.049Z,55.85
2022-09-17T20:26:25.847Z,55.88
2022-09-17T20:28:58.319Z,55.84
2022-09-17T20:31:28.359Z,55.97
2022-09-17T20:34:01.882Z,56.13
2022-09-17T20:36:36.813Z,55.85
2022-09-17T20:39:21.091Z,56.07
2022-09-17T20:41:51.816Z,56.21
2022-09-17T20:44:19.989Z,56.26
2022-09-17T20:46:48.125Z,56.46
2022-09-17T20:49:16.421Z,56.50
2022-09-17T20:51:43.831Z,56.54
2022-09-17T20:54:11.473Z,56.64
2022-09-17T20:56:39.529Z,56.55
2022-09-17T20:59:19.199Z,56.57
2022-09-17T21:01:50.197Z,56.66
2022-09-17T21:04:23.884Z,56.63
2022-09-17T21:06:55.291Z,56.61
2022-09-17T21:09:23.016Z,56.75
2022-09-17T21:11:52.884Z,56.76
2022-09-17T21:14:24.263Z,56.78
2022-09-17T21:16:52.159Z,56.90
2022-09-17T21:19:20.981Z,56.84
2022-09-17T21:21:52.303Z,56.98
2022-09-17T21:24:19.769Z,56.95
2022-09-17T21:26:48.976Z,57.12
2022-09-17T21:29:18.149Z,57.21
2022-09-17T21:31:45.767Z,57.31
2022-09-17T21:34:14.825Z,57.21
2022-09-17T21:36:45.053Z,57.40
2022-09-17T21:39:16.479Z,57.26
2022-09-17T21:41:53.201Z,57.27
2022-09-17T21:44:21.969Z,57.36
2022-09-17T21:46:50.478Z,57.40
2022-09-17T21:49:19.368Z,57.64
2022-09-17T21:51:46.579Z,57.55
2022-09-17T21:54:17.272Z,57.51
2022-09-17T21:56:45.689Z,57.65
2022-09-17T21:59:15.300Z,57.75
2022-09-17T22:01:47.056Z,57.65
2022-09-17T22:04:20.933Z,57.79
2022-09-17T22:06:50.503Z,57.85
2022-09-17T22:09:24.734Z,57.71
2022-09-17T22:11:53.902Z,57.92
2022-09-17T22:14:24.251Z,58.01
2022-09-17T22:16:54.106Z,57.95
2022-09-17T22:19:23.401Z,57.99
2022-09-17T22:21:53.526Z,58.06
2022-09-17T22:24:24.738Z,58.17
2022-09-17T22:26:57.334Z,58.18
2022-09-17T22:29:27.078Z,58.05
2022-09-17T22:31:54.588Z,58.18
2022-09-17T22:34:23.482Z,58.19
2022-09-17T22:36:52.229Z,58.31
2022-09-17T22:39:21.992Z,58.34
2022-09-17T22:41:50.618Z,58.34
2022-09-17T22:44:19.587Z,58.40
2022-09-17T22:46:48.904Z,58.50
2022-09-17T22:49:17.041Z,58.68
2022-09-17T22:51:45.502Z,58.55
2022-09-17T22:54:15.139Z,58.64
2022-09-17T22:56:43.187Z,58.67
2022-09-17T22:59:10.533Z,58.77
2022-09-17T23:01:39.532Z,58.64
2022-09-17T23:04:06.697Z,58.54
2022-09-17T23:06:38.394Z,58.64
2022-09-17T23:09:06.374Z,58.69
2022-09-17T23:11:36.179Z,58.59
2022-09-17T23:14:06.218Z,58.75
2022-09-17T23:16:38.518Z,58.64
2022-09-17T23:19:05.622Z,58.82
2022-09-17T23:21:32.611Z,58.80
2022-09-17T23:23:59.605Z,58.80
2022-09-17T23:26:27.286Z,58.77
2022-09-17T23:28:54.417Z,58.84
2022-09-17T23:31:25.356Z,58.89
2022-09-17T23:33:53.083Z,58.94
2022-09-17T23:36:28.594Z,58.95
2022-09-17T23:38:57.392Z,58.90
2022-09-17T23:41:28.329Z,59.01
2022-09-17T23:43:57.259Z,59.00
2022-09-17T23:46:26.052Z,59.02
2022-09-17T23:48:53.745Z,59.11
2022-09-17T23:51:22.008Z,59.22
2022-09-17T23:53:49.526Z,59.06
2022-09-17T23:56:21.441Z,59.26
2022-09-17T23:58:49.355Z,59.15
